createdAt,value
2023-02-05T00:03:02.449Z,5.10
2023-02-05T00:08:04.229Z,5.43
2023-02-05T00:13:08.944Z,4.77
2023-02-05T00:18:10.636Z,5.47
2023-02-05T00:23:12.333Z,5.37
2023-02-05T00:28:14.367Z,5.23
2023-02-05T00:33:16.133Z,5.50
2023-02-05T00:38:17.975Z,5.57
2023-02-05T00:43:19.819Z,5.47
2023-02-05T00:48:21.525Z,5.80
2023-02-05T00:53:24.683Z,6.13
2023-02-05T00:58:27.041Z,5.63
2023-02-05T01:03:28.768Z,4.88
2023-02-05T01:08:30.974Z,5.63
2023-02-05T01:13:32.617Z,5.40
2023-02-05T01:18:34.247Z,5.50
2023-02-05T01:23:35.906Z,5.77
2023-02-05T01:28:37.608Z,5.40
2023-02-05T01:33:39.236Z,5.57
2023-02-05T01:38:40.846Z,5.57
2023-02-05T01:43:42.530Z,5.27
2023-02-05T01:48:48.667Z,5.70
2023-02-05T01:53:50.687Z,6.15
2023-02-05T01:59:02.736Z,6.20
2023-02-05T02:04:05.092Z,6.77
2023-02-05T02:09:08.565Z,6.85
2023-02-05T02:14:11.890Z,6.00
2023-02-05T02:19:45.329Z,6.95
2023-02-05T02:25:25.504Z,6.43
2023-02-05T02:30:35.099Z,7.20
2023-02-05T02:35:47.171Z,6.80
2023-02-05T02:40:54.508Z,6.20
2023-02-05T02:46:06.843Z,6.50
2023-02-05T02:51:11.304Z,6.95
2023-02-05T02:56:14.927Z,6.65
2023-02-05T03:01:21.428Z,6.72
2023-02-05T03:06:23.270Z,7.00
2023-02-05T03:11:27.020Z,6.88
2023-02-05T03:16:29.060Z,7.50
2023-02-05T03:21:36.608Z,7.43
2023-02-05T03:26:38.564Z,7.43
2023-02-05T03:32:28.283Z,8.32
2023-02-05T03:37:44.832Z,7.00
2023-02-05T03:43:30.121Z,7.60
2023-02-05T03:48:35.903Z,6.63
2023-02-05T03:54:00.398Z,7.05
2023-02-05T03:59:03.930Z,6.75
2023-02-05T04:04:05.901Z,6.63
2023-02-05T04:09:07.930Z,6.82
2023-02-05T04:19:13.255Z,6.40
2023-02-05T04:24:15.366Z,6.53
2023-02-05T04:34:21.947Z,6.10
2023-02-05T04:44:25.968Z,6.40
2023-02-05T04:49:28.143Z,6.60
2023-02-05T04:54:29.871Z,6.75
2023-02-05T04:59:31.836Z,6.70
2023-02-05T05:04:33.579Z,6.22
2023-02-05T05:09:36.754Z,6.43
2023-02-05T05:14:38.657Z,6.03
2023-02-05T05:19:40.701Z,6.00
2023-02-05T05:24:42.304Z,6.28
2023-02-05T05:29:44.821Z,6.07
2023-02-05T05:34:46.564Z,6.10
2023-02-05T05:40:06.941Z,6.13
2023-02-05T05:45:08.941Z,6.20
2023-02-05T05:50:10.582Z,6.40
2023-02-05T05:55:12.447Z,6.10
2023-02-05T06:00:14.718Z,6.53
2023-02-05T06:05:16.609Z,7.00
2023-02-05T06:10:18.358Z,6.13
2023-02-05T06:15:20.001Z,6.77
2023-02-05T06:20:21.921Z,6.47
2023-02-05T06:25:23.667Z,6.90
2023-02-05T06:30:25.395Z,6.63
2023-02-05T06:35:27.123Z,6.80
2023-02-05T06:40:29.148Z,6.97
2023-02-05T06:45:30.873Z,7.40
2023-02-05T06:50:32.576Z,6.90
2023-02-05T06:55:34.556Z,6.25
2023-02-05T07:00:36.345Z,6.43
2023-02-05T07:05:37.928Z,5.80
2023-02-05T07:10:39.698Z,6.50
2023-02-05T07:15:41.408Z,6.33
2023-02-05T07:20:43.121Z,5.90
2023-02-05T07:25:45.074Z,6.53
2023-02-05T07:30:47.844Z,6.57
2023-02-05T07:35:49.510Z,6.28
2023-02-05T07:40:51.533Z,5.93
2023-02-05T07:46:01.161Z,8.30
2023-02-05T07:51:03.138Z,7.80
2023-02-05T07:56:05.115Z,7.20
2023-02-05T08:01:07.483Z,8.18
2023-02-05T08:06:13.972Z,8.18
2023-02-05T08:11:17.228Z,7.22
2023-02-05T08:16:19.060Z,7.97
2023-02-05T08:21:21.821Z,9.38
2023-02-05T08:26:23.486Z,11.45
2023-02-05T08:31:26.153Z,12.80
2023-02-05T08:36:28.952Z,11.95
2023-02-05T08:41:30.631Z,12.52
2023-02-05T08:46:47.566Z,12.47
2023-02-05T08:51:51.445Z,11.10
2023-02-05T08:56:53.105Z,9.68
2023-02-05T09:01:54.836Z,8.07
2023-02-05T09:06:56.709Z,7.72
2023-02-05T09:11:58.738Z,7.70
2023-02-05T09:17:00.313Z,7.90
2023-02-05T09:22:02.229Z,8.47
2023-02-05T09:27:06.344Z,6.47
2023-02-05T09:32:08.477Z,5.80
2023-02-05T09:37:10.385Z,5.50
2023-02-05T09:42:27.814Z,6.03
2023-02-05T09:47:37.699Z,4.85
2023-02-05T09:52:44.878Z,4.50
2023-02-05T09:57:46.679Z,4.25
2023-02-05T10:03:01.125Z,5.50
2023-02-05T10:08:26.860Z,4.22
2023-02-05T10:13:35.420Z,3.92
2023-02-05T10:19:08.456Z,3.80
2023-02-05T10:24:48.421Z,3.85
2023-02-05T10:30:12.516Z,3.63
2023-02-05T10:35:48.573Z,4.15
2023-02-05T10:40:54.783Z,5.00
2023-02-05T10:45:58.210Z,4.80
2023-02-05T10:51:03.388Z,4.88
2023-02-05T10:56:06.185Z,4.72
2023-02-05T11:06:14.362Z,4.70
2023-02-05T11:11:28.762Z,4.47
2023-02-05T11:16:40.889Z,4.32
2023-02-05T11:21:47.806Z,4.10
2023-02-05T11:26:49.614Z,4.47
2023-02-05T11:31:51.917Z,3.40
2023-02-05T11:36:56.991Z,3.70
2023-02-05T11:42:09.495Z,3.83
2023-02-05T11:47:11.229Z,4.00
2023-02-05T11:52:15.183Z,4.03
2023-02-05T11:57:19.967Z,3.80
2023-02-05T12:02:30.682Z,3.80
2023-02-05T12:07:58.530Z,4.60
2023-02-05T12:13:09.156Z,4.40
2023-02-05T12:18:38.297Z,4.65
2023-02-05T12:24:30.821Z,4.80
2023-02-05T12:29:35.447Z,4.73
2023-02-05T12:34:56.046Z,4.55
2023-02-05T12:40:03.523Z,4.18
2023-02-05T12:45:17.456Z,4.25
2023-02-05T12:50:54.560Z,4.18
2023-02-05T12:56:40.662Z,4.55
2023-02-05T13:01:45.229Z,4.28
2023-02-05T13:06:56.560Z,3.95
2023-02-05T13:12:04.982Z,4.03
2023-02-05T13:17:19.500Z,4.20
2023-02-05T13:22:43.828Z,4.07
2023-02-05T13:28:11.649Z,4.30
2023-02-05T13:33:14.639Z,3.97
2023-02-05T13:39:01.580Z,4.82
2023-02-05T13:44:39.600Z,4.45
2023-02-05T13:50:04.619Z,4.43
2023-02-05T13:55:26.551Z,4.72
2023-02-05T14:00:29.282Z,5.80
2023-02-05T14:05:36.040Z,5.35
2023-02-05T14:10:43.261Z,5.63
2023-02-05T14:15:45.254Z,5.45
2023-02-05T14:20:46.962Z,5.30
2023-02-05T14:26:06.403Z,6.45
2023-02-05T14:31:08.136Z,6.30
2023-02-05T14:36:20.888Z,5.90
2023-02-05T14:41:40.101Z,7.10
2023-02-05T14:46:46.247Z,6.60
2023-02-05T14:52:00.485Z,6.63
2023-02-05T14:57:11.149Z,6.32
2023-02-05T15:02:50.565Z,6.70
2023-02-05T15:08:00.128Z,6.35
2023-02-05T15:13:09.020Z,8.00
2023-02-05T15:18:24.170Z,7.68
2023-02-05T15:23:43.884Z,5.85
2023-02-05T15:28:56.102Z,9.38
2023-02-05T15:34:00.252Z,6.47
2023-02-05T15:39:31.481Z,6.40
2023-02-05T15:44:35.633Z,8.82
2023-02-05T15:49:43.135Z,7.13
2023-02-05T15:54:45.268Z,7.10
2023-02-05T15:59:47.260Z,7.43
2023-02-05T16:04:55.586Z,7.23
2023-02-05T16:09:59.557Z,7.57
2023-02-05T16:15:04.737Z,7.65
2023-02-05T16:20:18.524Z,8.25
2023-02-05T16:25:28.022Z,8.80
2023-02-05T16:30:51.958Z,9.70
2023-02-05T16:35:54.243Z,7.65
2023-02-05T16:41:00.213Z,7.38
2023-02-05T16:46:08.074Z,6.70
2023-02-05T16:51:32.467Z,8.80
2023-02-05T16:56:37.989Z,7.80
2023-02-05T17:01:43.608Z,8.00
2023-02-05T17:06:45.392Z,8.98
2023-02-05T17:11:47.123Z,8.80
2023-02-05T17:17:00.941Z,9.23
2023-02-05T17:22:14.581Z,8.10
2023-02-05T17:27:21.029Z,9.60
2023-02-05T17:32:23.867Z,8.35
2023-02-05T17:37:25.826Z,7.85
2023-02-05T17:42:29.836Z,10.70
2023-02-05T17:47:31.519Z,15.95
2023-02-05T17:52:33.251Z,9.15
2023-02-05T17:57:36.404Z,9.50
2023-02-05T18:02:38.031Z,10.25
2023-02-05T18:07:49.514Z,8.30
2023-02-05T18:12:52.207Z,10.45
2023-02-05T18:17:53.912Z,10.40
2023-02-05T18:22:55.749Z,9.20
2023-02-05T18:27:57.572Z,8.48
2023-02-05T18:32:59.302Z,9.13
2023-02-05T18:38:00.942Z,8.68
2023-02-05T18:43:02.688Z,7.60
2023-02-05T18:48:04.367Z,9.33
2023-02-05T18:53:06.578Z,7.97
2023-02-05T18:58:08.397Z,8.85
2023-02-05T19:03:10.073Z,7.57
2023-02-05T19:08:11.820Z,8.17
2023-02-05T19:13:13.444Z,8.88
2023-02-05T19:23:17.685Z,8.13
2023-02-05T19:28:19.825Z,8.35
2023-02-05T19:33:21.636Z,7.43
2023-02-05T19:38:23.260Z,7.30
2023-02-05T19:43:24.946Z,8.43
2023-02-05T19:48:28.862Z,7.63
2023-02-05T19:53:30.878Z,8.10
2023-02-05T19:58:34.276Z,8.15
2023-02-05T20:03:35.945Z,8.18
2023-02-05T20:08:38.109Z,8.27
2023-02-05T20:13:40.978Z,8.98
2023-02-05T20:23:45.959Z,8.82
2023-02-05T20:29:11.387Z,8.13
2023-02-05T20:34:18.711Z,8.35
2023-02-05T20:39:22.009Z,7.55
2023-02-05T20:44:25.539Z,8.68
2023-02-05T20:49:27.200Z,9.10
2023-02-05T20:54:28.785Z,8.57
2023-02-05T20:59:36.537Z,7.95
2023-02-05T21:04:38.303Z,7.95
2023-02-05T21:09:40.023Z,7.55
2023-02-05T21:14:41.850Z,7.60
2023-02-05T21:19:43.527Z,7.90
2023-02-05T21:24:45.136Z,8.13
2023-02-05T21:29:48.963Z,7.73
2023-02-05T21:34:50.735Z,8.60
2023-02-05T21:39:53.011Z,8.37
2023-02-05T21:44:56.860Z,7.50
2023-02-05T21:49:58.513Z,8.00
2023-02-05T21:55:00.428Z,7.67
2023-02-05T22:00:04.110Z,8.55
2023-02-05T22:05:15.248Z,7.53
2023-02-05T22:10:16.872Z,9.15
2023-02-05T22:15:18.557Z,8.98
2023-02-05T22:20:20.213Z,9.57
2023-02-05T22:25:21.813Z,8.40
2023-02-05T22:30:23.640Z,7.90
2023-02-05T22:35:25.338Z,7.60
2023-02-05T22:40:27.411Z,8.60
2023-02-05T22:45:31.310Z,8.43
2023-02-05T22:50:36.767Z,8.40
2023-02-05T22:55:39.901Z,9.10
2023-02-05T23:00:41.594Z,8.82
2023-02-05T23:05:43.239Z,8.07
2023-02-05T23:10:45.010Z,7.80
2023-02-05T23:15:46.709Z,7.33
2023-02-05T23:20:48.661Z,7.30
2023-02-05T23:25:51.918Z,8.15
2023-02-05T23:30:53.692Z,7.68
2023-02-05T23:35:55.740Z,7.33
2023-02-05T23:40:58.372Z,7.63
2023-02-05T23:46:00.821Z,7.38
2023-02-05T23:56:04.782Z,7.40
